Carcarana, Argentina
Current Conditions -  °F | °C
As of 10:00 PM on Saturday 22 Nov 2014 (Local Time) from SAAR Reporting Station
Clear Clear  
Wind Chill: 66°   Ceiling: Unl
Heat Index: 66°   Visibility: 6mi
Dew Point: 54°   Wind: 5mph
Humidity: 64%   Direction: 290°WNW
Pressure: 29.88"   Gusts: NA
Location:  32.85°S, 61.15°W
Report Text: SAAR 230100Z 29004KT CAVOK 19/12 Q1012
Loading
Personal Weather Stations






























Interactive Weather Map New forecast layout! Learn more

10-Day Weather Forecast

Advertisements
Track Severe Weather on mobile